createdAt,value
2017-08-29T00:00:23.685Z,16.40
2017-08-29T00:02:51.225Z,16.40
2017-08-29T00:05:18.751Z,16.40
2017-08-29T00:07:47.086Z,16.30
2017-08-29T00:10:14.633Z,16.30
2017-08-29T00:12:42.172Z,16.30
2017-08-29T00:15:09.732Z,16.30
2017-08-29T00:17:37.280Z,16.30
2017-08-29T00:20:04.810Z,16.30
2017-08-29T00:22:32.400Z,16.20
2017-08-29T00:24:59.957Z,16.20
2017-08-29T00:27:27.509Z,16.20
2017-08-29T00:29:55.072Z,16.20
2017-08-29T00:32:22.596Z,16.20
2017-08-29T00:34:50.138Z,16.20
2017-08-29T00:37:17.707Z,16.20
2017-08-29T00:39:45.237Z,16.20
2017-08-29T00:42:13.530Z,16.30
2017-08-29T00:44:41.093Z,16.30
2017-08-29T00:47:08.627Z,16.30
2017-08-29T00:49:36.170Z,16.30
2017-08-29T00:52:03.750Z,16.30
2017-08-29T00:54:31.289Z,16.30
2017-08-29T00:56:58.833Z,16.30
2017-08-29T00:59:26.407Z,16.30
2017-08-29T01:01:53.943Z,16.30
2017-08-29T01:04:21.469Z,16.30
2017-08-29T01:06:49.030Z,16.20
2017-08-29T01:09:16.570Z,16.20
2017-08-29T01:11:44.123Z,16.20
2017-08-29T01:14:11.716Z,16.10
2017-08-29T01:16:39.276Z,16.10
2017-08-29T01:19:06.808Z,16.10
2017-08-29T01:21:34.391Z,16.00
2017-08-29T01:24:01.974Z,15.90
2017-08-29T01:26:29.533Z,15.90
2017-08-29T01:28:57.103Z,15.90
2017-08-29T01:31:24.663Z,15.90
2017-08-29T01:33:52.227Z,15.80
2017-08-29T01:36:19.785Z,15.80
2017-08-29T01:38:47.334Z,15.80
2017-08-29T01:41:14.868Z,15.70
2017-08-29T01:43:42.460Z,15.70
2017-08-29T01:46:10.005Z,15.70
2017-08-29T01:48:37.569Z,15.60
2017-08-29T01:51:05.155Z,15.60
2017-08-29T01:53:32.708Z,15.60
2017-08-29T01:56:00.253Z,15.60
2017-08-29T01:58:27.839Z,15.60
2017-08-29T02:00:55.395Z,15.60
2017-08-29T02:03:22.925Z,15.60
2017-08-29T02:05:50.512Z,15.60
2017-08-29T02:08:18.059Z,15.60
2017-08-29T02:10:45.600Z,15.60
2017-08-29T02:13:13.184Z,15.50
2017-08-29T02:15:40.725Z,15.50
2017-08-29T02:18:08.256Z,15.50
2017-08-29T02:20:35.825Z,15.50
2017-08-29T02:23:03.384Z,15.50
2017-08-29T02:25:30.943Z,15.50
2017-08-29T02:27:58.519Z,15.50
2017-08-29T02:30:26.070Z,15.50
2017-08-29T02:32:53.606Z,15.50
2017-08-29T02:35:21.178Z,15.50
2017-08-29T02:37:48.729Z,15.50
2017-08-29T02:40:16.289Z,15.50
2017-08-29T02:42:43.863Z,15.50
2017-08-29T02:45:11.416Z,15.50
2017-08-29T02:47:38.964Z,15.40
2017-08-29T02:50:06.548Z,15.40
2017-08-29T02:52:34.090Z,15.30
2017-08-29T02:55:01.648Z,15.30
2017-08-29T02:57:29.237Z,15.30
2017-08-29T02:59:56.835Z,15.30
2017-08-29T03:02:24.416Z,15.30
2017-08-29T03:04:52.005Z,15.20
2017-08-29T03:07:19.580Z,15.20
2017-08-29T03:09:47.169Z,15.20
2017-08-29T03:12:14.747Z,15.20
2017-08-29T03:14:42.344Z,15.20
2017-08-29T03:17:09.932Z,15.20
2017-08-29T03:19:37.529Z,15.20
2017-08-29T03:22:05.123Z,15.20
2017-08-29T03:24:32.710Z,15.30
2017-08-29T03:29:34.154Z,15.30
2017-08-29T03:32:01.753Z,15.30
2017-08-29T03:34:29.344Z,15.20
2017-08-29T03:36:56.942Z,15.20
2017-08-29T03:39:25.301Z,15.20
2017-08-29T03:41:52.884Z,15.20
2017-08-29T03:44:20.453Z,15.20
2017-08-29T03:46:48.054Z,15.20
2017-08-29T03:49:15.608Z,15.20
2017-08-29T03:51:43.196Z,15.20
2017-08-29T03:54:10.777Z,15.20
2017-08-29T03:56:38.373Z,15.20
2017-08-29T03:59:05.983Z,15.20
2017-08-29T04:01:33.576Z,15.20
2017-08-29T04:04:01.159Z,15.20
2017-08-29T04:06:28.757Z,15.20
2017-08-29T04:08:56.328Z,15.20
2017-08-29T04:11:23.931Z,15.20
2017-08-29T04:13:51.509Z,15.20
2017-08-29T04:16:19.105Z,15.20
2017-08-29T04:18:46.710Z,15.20
2017-08-29T04:21:14.298Z,15.20
2017-08-29T04:23:41.945Z,15.20
2017-08-29T04:26:09.541Z,15.10
2017-08-29T04:28:37.137Z,15.10
2017-08-29T04:31:04.734Z,15.10
2017-08-29T04:33:32.315Z,15.00
2017-08-29T04:35:59.926Z,15.00
2017-08-29T04:38:27.503Z,15.00
2017-08-29T04:40:55.079Z,15.00
2017-08-29T04:43:22.679Z,15.00
2017-08-29T04:45:51.023Z,15.00
2017-08-29T04:48:18.612Z,14.90
2017-08-29T04:50:46.174Z,15.00
2017-08-29T04:53:13.773Z,15.00
2017-08-29T04:55:41.389Z,15.00
2017-08-29T04:58:09.735Z,15.00
2017-08-29T05:00:37.332Z,15.00
2017-08-29T05:03:04.910Z,15.00
2017-08-29T05:05:32.508Z,15.10
2017-08-29T05:08:00.096Z,15.20
2017-08-29T05:10:27.654Z,15.20
2017-08-29T05:12:55.272Z,15.30
2017-08-29T05:15:22.868Z,15.40
2017-08-29T05:17:50.462Z,15.40
2017-08-29T05:20:18.827Z,15.50
2017-08-29T05:22:46.417Z,15.50
2017-08-29T05:25:14.029Z,15.50
2017-08-29T05:27:41.598Z,15.50
2017-08-29T05:30:09.172Z,15.60
2017-08-29T05:32:36.764Z,15.60
2017-08-29T05:35:04.360Z,15.70
2017-08-29T05:37:31.954Z,15.80
2017-08-29T05:39:59.532Z,15.90
2017-08-29T05:42:27.096Z,16.00
2017-08-29T05:44:54.690Z,16.10
2017-08-29T05:47:22.285Z,16.10
2017-08-29T05:49:49.887Z,16.10
2017-08-29T05:52:17.478Z,16.20
2017-08-29T05:54:45.195Z,16.30
2017-08-29T05:57:12.970Z,16.40
2017-08-29T05:59:40.563Z,16.50
2017-08-29T06:02:08.210Z,16.60
2017-08-29T06:04:35.808Z,16.70
2017-08-29T06:07:04.249Z,16.80
2017-08-29T06:09:31.881Z,16.90
2017-08-29T06:11:59.440Z,17.00
2017-08-29T06:14:27.450Z,17.20
2017-08-29T06:16:55.099Z,17.30
2017-08-29T06:19:22.691Z,17.40
2017-08-29T06:21:50.280Z,17.50
2017-08-29T06:24:17.880Z,17.60
2017-08-29T06:26:45.511Z,17.80
2017-08-29T06:29:13.095Z,17.90
2017-08-29T06:31:40.704Z,18.10
2017-08-29T06:34:08.290Z,18.20
2017-08-29T06:36:35.848Z,18.40
2017-08-29T06:39:03.450Z,18.60
2017-08-29T06:41:31.041Z,18.80
2017-08-29T06:43:58.632Z,19.00
2017-08-29T06:46:26.229Z,19.20
2017-08-29T06:48:54.539Z,19.50
2017-08-29T06:51:22.181Z,19.70
2017-08-29T06:53:49.837Z,19.90
2017-08-29T06:56:17.418Z,20.10
2017-08-29T06:58:46.001Z,20.40
2017-08-29T07:01:13.580Z,20.60
2017-08-29T07:03:41.180Z,20.80
2017-08-29T07:06:08.804Z,21.00
2017-08-29T07:08:36.392Z,21.20
2017-08-29T07:11:03.996Z,21.40
2017-08-29T07:13:31.577Z,21.60
2017-08-29T07:15:59.178Z,21.80
2017-08-29T07:18:26.747Z,21.90
2017-08-29T07:20:54.347Z,22.00
2017-08-29T07:23:21.978Z,22.10
2017-08-29T07:25:49.575Z,22.20
2017-08-29T07:28:17.191Z,22.30
2017-08-29T07:30:44.779Z,22.40
2017-08-29T07:33:12.389Z,22.60
2017-08-29T07:35:39.999Z,22.70
2017-08-29T07:38:07.594Z,22.80
2017-08-29T07:40:35.221Z,22.90
2017-08-29T07:43:02.800Z,23.00
2017-08-29T07:45:30.393Z,23.20
2017-08-29T07:47:58.001Z,23.30
2017-08-29T07:50:25.598Z,23.40
2017-08-29T07:52:53.254Z,23.50
2017-08-29T07:55:20.851Z,23.60
2017-08-29T07:57:48.432Z,23.70
2017-08-29T08:00:16.027Z,23.80
2017-08-29T08:02:43.621Z,23.90
2017-08-29T08:05:11.238Z,24.00
2017-08-29T08:07:38.833Z,24.20
2017-08-29T08:10:06.392Z,24.20
2017-08-29T08:12:33.986Z,24.40
2017-08-29T08:15:01.557Z,24.50
2017-08-29T08:17:29.175Z,24.60
2017-08-29T08:19:56.761Z,24.70
2017-08-29T08:22:24.356Z,24.80
2017-08-29T08:24:51.949Z,24.90
2017-08-29T08:27:19.557Z,25.00
2017-08-29T08:29:47.183Z,25.10
2017-08-29T08:32:14.759Z,25.20
2017-08-29T08:34:42.343Z,25.40
2017-08-29T08:37:09.920Z,25.50
2017-08-29T08:39:37.481Z,25.50
2017-08-29T08:42:05.069Z,25.60
2017-08-29T08:44:32.637Z,25.70
2017-08-29T08:47:01.008Z,25.70
2017-08-29T08:49:29.408Z,25.50
2017-08-29T08:51:56.973Z,25.50
2017-08-29T08:54:25.412Z,25.50
2017-08-29T08:56:53.000Z,25.60
2017-08-29T08:59:20.565Z,25.70
2017-08-29T09:01:48.161Z,25.90
2017-08-29T09:04:15.735Z,25.90
2017-08-29T09:06:43.352Z,25.90
2017-08-29T09:09:10.920Z,26.10
2017-08-29T09:11:38.491Z,26.20
2017-08-29T09:14:06.132Z,26.20
2017-08-29T09:16:34.469Z,26.30
2017-08-29T09:19:02.075Z,26.30
2017-08-29T09:21:30.123Z,26.40
2017-08-29T09:23:57.714Z,26.50
2017-08-29T09:26:26.307Z,26.70
2017-08-29T09:28:53.875Z,26.70
2017-08-29T09:31:21.495Z,26.80
2017-08-29T09:33:49.075Z,26.90
2017-08-29T09:36:16.676Z,26.80
2017-08-29T09:38:44.278Z,26.80
2017-08-29T09:41:11.868Z,26.90
2017-08-29T09:43:39.460Z,26.90
2017-08-29T09:46:07.025Z,26.90
2017-08-29T09:48:34.609Z,27.00
2017-08-29T09:51:02.193Z,27.10
2017-08-29T09:53:29.752Z,27.00
2017-08-29T09:55:57.371Z,27.10
2017-08-29T09:58:24.983Z,27.30
2017-08-29T10:00:52.644Z,27.40
2017-08-29T10:03:20.239Z,27.50
2017-08-29T10:05:47.907Z,27.60
2017-08-29T10:08:15.520Z,27.70
2017-08-29T10:10:43.103Z,27.80
2017-08-29T10:13:10.682Z,27.80
2017-08-29T10:15:38.264Z,27.80
2017-08-29T10:18:05.844Z,27.90
2017-08-29T10:20:33.439Z,28.00
2017-08-29T10:23:01.011Z,28.10
2017-08-29T10:25:28.568Z,28.10
2017-08-29T10:27:56.171Z,28.10
2017-08-29T10:30:23.740Z,28.10
2017-08-29T10:32:51.398Z,28.00
2017-08-29T10:35:19.013Z,28.20
2017-08-29T10:37:46.604Z,28.30
2017-08-29T10:40:14.218Z,28.50
2017-08-29T10:42:41.830Z,28.40
2017-08-29T10:45:09.446Z,28.30
2017-08-29T10:47:37.037Z,28.20
2017-08-29T10:50:04.644Z,28.40
2017-08-29T10:52:32.302Z,28.30
2017-08-29T10:54:59.895Z,28.40
2017-08-29T10:57:27.547Z,28.40
2017-08-29T10:59:55.147Z,28.40
2017-08-29T11:02:22.722Z,28.50
2017-08-29T11:04:50.393Z,28.80
2017-08-29T11:07:17.992Z,28.70
2017-08-29T11:09:45.630Z,28.60
2017-08-29T11:12:13.243Z,28.70
2017-08-29T11:14:40.824Z,28.70
2017-08-29T11:17:08.453Z,28.70
2017-08-29T11:19:36.029Z,28.90
2017-08-29T11:22:03.632Z,29.00
2017-08-29T11:24:31.235Z,29.20
2017-08-29T11:26:58.854Z,29.30
2017-08-29T11:29:26.438Z,29.20
2017-08-29T11:31:54.109Z,29.30
2017-08-29T11:34:21.742Z,29.40
2017-08-29T11:36:50.150Z,29.50
2017-08-29T11:39:18.516Z,29.60
2017-08-29T11:41:46.107Z,29.50
2017-08-29T11:44:13.788Z,29.50
2017-08-29T11:46:41.438Z,29.50
2017-08-29T11:49:09.015Z,29.50
2017-08-29T11:51:36.642Z,29.50
2017-08-29T11:54:04.232Z,29.60
2017-08-29T11:56:31.833Z,29.60
2017-08-29T11:58:59.480Z,29.80
2017-08-29T12:01:27.098Z,29.80
2017-08-29T12:03:54.718Z,29.60
2017-08-29T12:06:22.295Z,29.50
2017-08-29T12:08:49.928Z,29.60
2017-08-29T12:11:17.534Z,29.70
2017-08-29T12:13:45.102Z,29.50
2017-08-29T12:16:12.699Z,29.50
2017-08-29T12:18:40.269Z,29.60
2017-08-29T12:21:07.914Z,29.50
2017-08-29T12:23:35.522Z,29.40
2017-08-29T12:26:03.104Z,29.50
2017-08-29T12:28:30.736Z,29.50
2017-08-29T12:30:58.324Z,29.50
2017-08-29T12:33:25.939Z,29.50
2017-08-29T12:35:53.552Z,29.60
2017-08-29T12:38:21.144Z,29.80
2017-08-29T12:40:48.764Z,29.70
2017-08-29T12:43:16.356Z,29.60
2017-08-29T12:45:43.970Z,29.70
2017-08-29T12:48:11.631Z,29.80
2017-08-29T12:50:39.287Z,29.90
2017-08-29T12:53:06.900Z,29.90
2017-08-29T12:55:34.482Z,29.90
2017-08-29T12:58:02.156Z,29.90
2017-08-29T13:00:30.059Z,29.90
2017-08-29T13:02:57.650Z,29.90
2017-08-29T13:05:25.316Z,29.80
2017-08-29T13:07:52.924Z,29.70
2017-08-29T13:10:20.517Z,29.60
2017-08-29T13:12:48.159Z,29.50
2017-08-29T13:15:15.773Z,29.40
2017-08-29T13:17:43.441Z,29.50
2017-08-29T13:20:11.798Z,29.70
2017-08-29T13:22:39.419Z,29.70
2017-08-29T13:25:07.032Z,29.60
2017-08-29T13:27:34.623Z,29.50
2017-08-29T13:30:02.234Z,29.60
2017-08-29T13:32:29.805Z,29.60
2017-08-29T13:34:57.381Z,29.70
2017-08-29T13:37:24.983Z,29.80
2017-08-29T13:39:52.562Z,29.70
2017-08-29T13:42:20.185Z,29.80
2017-08-29T13:44:47.777Z,29.70
2017-08-29T13:47:15.344Z,29.80
2017-08-29T13:49:42.999Z,29.80
2017-08-29T13:52:10.643Z,29.80
2017-08-29T13:54:38.294Z,29.90
2017-08-29T13:57:05.880Z,29.90
2017-08-29T13:59:33.496Z,29.80
2017-08-29T14:02:01.109Z,29.70
2017-08-29T14:04:28.716Z,29.70
2017-08-29T14:06:56.328Z,29.60
2017-08-29T14:09:23.933Z,29.60
2017-08-29T14:11:51.501Z,29.60
2017-08-29T14:14:19.178Z,29.60
2017-08-29T14:16:46.775Z,29.50
2017-08-29T14:19:14.398Z,29.50
2017-08-29T14:21:41.983Z,29.50
2017-08-29T14:24:09.555Z,29.40
2017-08-29T14:26:37.155Z,29.40
2017-08-29T14:29:04.765Z,29.40
2017-08-29T14:31:32.390Z,29.50
2017-08-29T14:33:59.967Z,29.50
2017-08-29T14:36:27.556Z,29.50
2017-08-29T14:38:55.167Z,29.50
2017-08-29T14:41:22.761Z,29.50
2017-08-29T14:43:50.398Z,29.50
2017-08-29T14:46:23.762Z,29.50
2017-08-29T14:49:04.127Z,29.50
2017-08-29T14:51:31.697Z,29.40
2017-08-29T14:53:59.283Z,29.40
2017-08-29T14:56:26.860Z,29.30
2017-08-29T14:58:54.451Z,29.30
2017-08-29T15:01:22.068Z,29.20
2017-08-29T15:03:49.642Z,29.20
2017-08-29T15:06:17.225Z,29.10
2017-08-29T15:08:44.836Z,29.10
2017-08-29T15:11:12.429Z,29.20
2017-08-29T15:13:40.055Z,29.10
2017-08-29T15:16:07.643Z,29.10
2017-08-29T15:18:35.226Z,29.10
2017-08-29T15:21:02.810Z,29.00
2017-08-29T15:23:30.496Z,29.00
2017-08-29T15:25:58.137Z,29.00
2017-08-29T15:28:25.708Z,28.90
2017-08-29T15:30:53.307Z,29.00
2017-08-29T15:33:21.700Z,28.90
2017-08-29T15:35:49.270Z,28.90
2017-08-29T15:38:16.861Z,28.90
2017-08-29T15:40:44.452Z,28.90
2017-08-29T15:43:12.032Z,28.90
2017-08-29T15:45:39.636Z,29.00
2017-08-29T15:48:07.265Z,29.00
2017-08-29T15:50:35.620Z,29.00
2017-08-29T15:53:03.225Z,28.90
2017-08-29T15:55:30.832Z,28.90
2017-08-29T15:57:58.403Z,28.90
2017-08-29T16:00:25.987Z,28.90
2017-08-29T16:02:53.624Z,28.90
2017-08-29T16:05:21.191Z,28.80
2017-08-29T16:07:48.778Z,28.80
2017-08-29T16:10:16.402Z,28.80
2017-08-29T16:12:43.975Z,28.80
2017-08-29T16:15:11.577Z,28.70
2017-08-29T16:17:39.187Z,28.70
2017-08-29T16:20:06.756Z,28.60
2017-08-29T16:22:34.348Z,28.60
2017-08-29T16:25:01.971Z,28.50
2017-08-29T16:27:29.576Z,28.50
2017-08-29T16:29:57.152Z,28.40
2017-08-29T16:32:24.742Z,28.40
2017-08-29T16:34:52.314Z,28.40
2017-08-29T16:37:19.892Z,28.30
2017-08-29T16:39:47.512Z,28.30
2017-08-29T16:42:15.100Z,28.30
2017-08-29T16:44:42.725Z,28.20
2017-08-29T16:47:11.097Z,28.10
2017-08-29T16:49:38.672Z,28.00
2017-08-29T16:52:06.261Z,27.90
2017-08-29T16:54:33.857Z,27.90
2017-08-29T16:57:01.438Z,27.80
2017-08-29T16:59:29.071Z,27.70
2017-08-29T17:01:56.679Z,27.70
2017-08-29T17:04:24.262Z,27.70
2017-08-29T17:06:51.835Z,27.60
2017-08-29T17:09:19.427Z,27.60
2017-08-29T17:11:47.002Z,27.50
2017-08-29T17:14:14.594Z,27.50
2017-08-29T17:16:42.221Z,27.50
2017-08-29T17:19:09.796Z,27.40
2017-08-29T17:21:37.405Z,27.30
2017-08-29T17:24:05.123Z,27.10
2017-08-29T17:26:32.717Z,27.00
2017-08-29T17:29:00.306Z,26.90
2017-08-29T17:31:27.934Z,26.70
2017-08-29T17:33:55.515Z,26.70
2017-08-29T17:36:23.244Z,26.60
2017-08-29T17:38:50.892Z,26.50
2017-08-29T17:41:18.476Z,26.50
2017-08-29T17:43:46.060Z,26.40
2017-08-29T17:46:13.670Z,26.30
2017-08-29T17:48:41.250Z,26.20
2017-08-29T17:51:08.852Z,26.10
2017-08-29T17:53:36.483Z,26.10
2017-08-29T17:56:04.105Z,26.10
2017-08-29T17:58:31.692Z,26.00
2017-08-29T18:00:59.301Z,25.90
2017-08-29T18:03:26.893Z,25.80
2017-08-29T18:05:55.262Z,25.60
2017-08-29T18:08:22.849Z,25.60
2017-08-29T18:10:50.474Z,25.50
2017-08-29T18:13:18.086Z,25.30
2017-08-29T18:15:45.675Z,25.30
2017-08-29T18:18:13.259Z,25.10
2017-08-29T18:20:40.867Z,25.00
2017-08-29T18:23:08.451Z,24.90
2017-08-29T18:25:36.125Z,24.80
2017-08-29T18:28:04.461Z,24.70
2017-08-29T18:30:32.036Z,24.70
2017-08-29T18:32:59.653Z,24.60
2017-08-29T18:35:27.255Z,24.50
2017-08-29T18:37:54.871Z,24.50
2017-08-29T18:40:22.468Z,24.50
2017-08-29T18:42:50.062Z,24.40
2017-08-29T18:45:17.646Z,24.40
2017-08-29T18:47:45.218Z,24.40
2017-08-29T18:50:12.818Z,24.40
2017-08-29T18:52:40.388Z,24.30
2017-08-29T18:55:07.965Z,24.30
2017-08-29T18:57:35.598Z,24.20
2017-08-29T19:00:03.187Z,24.10
2017-08-29T19:02:30.771Z,24.10
2017-08-29T19:04:58.399Z,24.10
2017-08-29T19:07:25.980Z,24.00
2017-08-29T19:09:53.546Z,23.90
2017-08-29T19:12:21.170Z,23.80
2017-08-29T19:14:48.744Z,23.70
2017-08-29T19:17:16.330Z,23.70
2017-08-29T19:19:43.967Z,23.60
2017-08-29T19:22:11.568Z,23.60
2017-08-29T19:24:39.143Z,23.50
2017-08-29T19:27:06.802Z,23.50
2017-08-29T19:29:34.356Z,23.40
2017-08-29T19:32:01.946Z,23.40
2017-08-29T19:34:29.559Z,23.30
2017-08-29T19:36:57.130Z,23.30
2017-08-29T19:39:24.710Z,23.20
2017-08-29T19:41:52.330Z,23.20
2017-08-29T19:44:19.906Z,23.20
2017-08-29T19:46:47.508Z,23.10
2017-08-29T19:49:15.140Z,23.10
2017-08-29T19:51:42.755Z,23.00
2017-08-29T19:54:10.348Z,22.90
2017-08-29T19:56:37.987Z,22.90
2017-08-29T19:59:05.572Z,22.90
2017-08-29T20:01:33.137Z,22.80
2017-08-29T20:04:00.769Z,22.80
2017-08-29T20:06:28.369Z,22.80
2017-08-29T20:08:55.933Z,22.80
2017-08-29T20:11:23.563Z,22.80
2017-08-29T20:13:51.181Z,22.70
2017-08-29T20:16:18.773Z,22.70
2017-08-29T20:18:46.392Z,22.60
2017-08-29T20:21:14.107Z,22.60
2017-08-29T20:23:41.722Z,22.60
2017-08-29T20:26:09.342Z,22.50
2017-08-29T20:28:36.917Z,22.50
2017-08-29T20:31:04.530Z,22.50
2017-08-29T20:33:32.084Z,22.40
2017-08-29T20:35:59.687Z,22.40
2017-08-29T20:38:27.277Z,22.30
2017-08-29T20:40:54.842Z,22.30
2017-08-29T20:43:22.420Z,22.20
2017-08-29T20:45:49.990Z,22.20
2017-08-29T20:48:17.596Z,22.20
2017-08-29T20:50:45.207Z,22.10
2017-08-29T20:53:13.576Z,22.10
2017-08-29T20:55:41.155Z,22.10
2017-08-29T20:58:08.779Z,22.10
2017-08-29T21:00:36.396Z,22.10
2017-08-29T21:03:03.986Z,22.10
2017-08-29T21:05:31.596Z,22.00
2017-08-29T21:07:59.181Z,22.00
2017-08-29T21:10:26.755Z,22.00
2017-08-29T21:12:54.364Z,22.00
2017-08-29T21:15:21.950Z,22.00
2017-08-29T21:17:49.527Z,22.00
2017-08-29T21:20:17.115Z,22.00
2017-08-29T21:22:44.713Z,21.90
2017-08-29T21:25:12.331Z,21.90
2017-08-29T21:27:39.892Z,21.90
2017-08-29T21:30:07.449Z,21.90
2017-08-29T21:32:35.069Z,21.90
2017-08-29T21:35:02.677Z,21.90
2017-08-29T21:37:30.303Z,21.90
2017-08-29T21:39:57.885Z,21.90
2017-08-29T21:42:25.478Z,21.90
2017-08-29T21:44:53.064Z,21.90
2017-08-29T21:47:20.657Z,21.80
2017-08-29T21:49:48.408Z,21.80
2017-08-29T21:52:16.006Z,21.80
2017-08-29T21:54:43.585Z,21.80
2017-08-29T21:57:11.207Z,21.80
2017-08-29T21:59:38.777Z,21.80
2017-08-29T22:02:06.365Z,21.80
2017-08-29T22:04:33.925Z,21.80
2017-08-29T22:07:01.506Z,21.80
2017-08-29T22:09:29.856Z,21.80
2017-08-29T22:11:57.438Z,21.80
2017-08-29T22:14:25.058Z,21.80
2017-08-29T22:16:52.660Z,21.80
2017-08-29T22:19:20.235Z,21.80
2017-08-29T22:21:48.700Z,21.80
2017-08-29T22:24:16.261Z,21.80
2017-08-29T22:26:43.882Z,21.80
2017-08-29T22:29:11.469Z,21.80
2017-08-29T22:31:39.055Z,21.80
2017-08-29T22:34:06.693Z,21.90
2017-08-29T22:36:34.268Z,21.90
2017-08-29T22:39:01.871Z,21.90
2017-08-29T22:41:29.441Z,21.90
2017-08-29T22:43:57.074Z,21.90
2017-08-29T22:46:24.694Z,21.80
2017-08-29T22:48:52.267Z,21.90
2017-08-29T22:51:19.874Z,21.90
2017-08-29T22:53:47.441Z,21.90
2017-08-29T22:56:15.031Z,21.90
2017-08-29T22:58:42.631Z,21.90
2017-08-29T23:01:10.232Z,22.00
2017-08-29T23:03:37.844Z,21.90
2017-08-29T23:06:05.400Z,21.90
2017-08-29T23:08:32.984Z,21.90
2017-08-29T23:11:00.594Z,21.90
2017-08-29T23:13:28.185Z,21.90
2017-08-29T23:15:55.815Z,21.90
2017-08-29T23:18:23.382Z,21.90
2017-08-29T23:20:50.958Z,22.00
2017-08-29T23:23:18.547Z,22.00
2017-08-29T23:25:46.135Z,22.10
2017-08-29T23:28:13.742Z,22.10
2017-08-29T23:30:41.323Z,22.10
2017-08-29T23:33:08.904Z,22.20
2017-08-29T23:35:36.481Z,22.20
2017-08-29T23:38:04.058Z,22.30
2017-08-29T23:40:31.684Z,22.30
2017-08-29T23:42:59.266Z,22.40
2017-08-29T23:45:26.845Z,22.50
2017-08-29T23:47:54.434Z,22.50
2017-08-29T23:50:22.008Z,22.50
2017-08-29T23:52:49.603Z,22.50
2017-08-29T23:55:17.191Z,22.50
2017-08-29T23:57:44.768Z,22.50
